Time;durP1;ratioP1;P1;durP2;ratioP2;P2;SDS_P1;SDS_P2;PMS_P1;PMS_P2;Temp;Humidity;BMP_temperature;BMP_pressure;BME280_temperature;BME280_humidity;BME280_pressure;Samples;Min_cycle;Max_cycle;Signal;HPM_P1;HPM_P2
2021/06/26 00:01:25;;;;;;;10.80;9.80;;;13.20;99.90;;;;;;5032791;28;20045;-85
2021/06/26 00:03:52;;;;;;;12.30;11.00;;;13.20;99.90;;;;;;5033009;28;20058;-87
2021/06/26 00:06:19;;;;;;;17.73;9.98;;;13.10;99.90;;;;;;5016135;28;20053;-85
2021/06/26 00:08:46;;;;;;;15.52;9.35;;;13.00;99.90;;;;;;5015800;28;20104;-85
2021/06/26 00:11:13;;;;;;;11.63;10.43;;;12.90;99.90;;;;;;5015730;28;20046;-85
2021/06/26 00:13:39;;;;;;;11.02;9.93;;;12.80;99.90;;;;;;5015169;28;20049;-86
2021/06/26 00:16:06;;;;;;;15.05;10.70;;;12.70;99.90;;;;;;5015543;28;20045;-85
2021/06/26 00:18:33;;;;;;;16.73;11.07;;;12.70;99.90;;;;;;5032884;28;20061;-85
2021/06/26 00:21:00;;;;;;;11.95;10.80;;;12.60;99.90;;;;;;5032601;28;20041;-85
2021/06/26 00:23:26;;;;;;;15.35;12.68;;;12.60;99.90;;;;;;5015292;28;20057;-85
2021/06/26 00:26:07;;;;;;;11.73;10.63;;;12.60;99.90;;;;;;5017044;28;20050;-85
2021/06/26 00:28:34;;;;;;;13.07;11.70;;;12.50;99.90;;;;;;5015322;28;20049;-85
2021/06/26 00:31:02;;;;;;;24.58;14.73;;;12.40;99.90;;;;;;5015702;28;20067;-85
2021/06/26 00:33:28;;;;;;;16.25;12.38;;;12.40;99.90;;;;;;5034989;28;20049;-84
2021/06/26 00:35:55;;;;;;;17.90;12.80;;;12.40;99.90;;;;;;5018641;28;20056;-85
2021/06/26 00:38:22;;;;;;;23.05;15.32;;;12.40;99.90;;;;;;5018619;28;20080;-85
2021/06/26 00:40:49;;;;;;;15.43;12.70;;;12.40;99.90;;;;;;5018680;28;20060;-85
2021/06/26 00:43:17;;;;;;;16.98;13.32;;;12.50;99.90;;;;;;5018571;28;20095;-85
2021/06/26 00:45:45;;;;;;;15.02;12.85;;;12.40;99.90;;;;;;5018760;28;20505;-86
2021/06/26 00:48:12;;;;;;;15.30;13.20;;;12.40;99.90;;;;;;5036495;28;20501;-85
2021/06/26 00:50:38;;;;;;;13.98;12.48;;;12.40;99.90;;;;;;5020020;28;20049;-85
2021/06/26 00:53:05;;;;;;;13.80;12.38;;;12.50;99.90;;;;;;5021850;28;20064;-85
2021/06/26 00:55:32;;;;;;;14.57;11.85;;;12.50;99.90;;;;;;5033787;28;20113;-86
2021/06/26 00:58:01;;;;;;;13.88;11.48;;;12.50;99.90;;;;;;5039785;28;20054;-85
2021/06/26 01:00:29;;;;;;;15.60;13.05;;;12.50;99.90;;;;;;5018727;28;20087;-86
2021/06/26 01:02:58;;;;;;;13.00;11.73;;;12.40;99.90;;;;;;5018854;28;20077;-85
2021/06/26 01:05:26;;;;;;;15.95;12.57;;;12.30;99.90;;;;;;5018381;28;20052;-85
2021/06/26 01:07:53;;;;;;;19.02;14.35;;;12.30;99.90;;;;;;5018624;28;20498;-85
2021/06/26 01:10:20;;;;;;;14.60;12.88;;;12.30;99.90;;;;;;5035749;28;20057;-85
2021/06/26 01:12:48;;;;;;;23.92;16.25;;;12.40;99.90;;;;;;5018485;28;20136;-86
2021/06/26 01:15:16;;;;;;;21.10;15.45;;;12.40;99.90;;;;;;5018065;28;20110;-85
2021/06/26 01:17:44;;;;;;;17.27;13.93;;;12.50;99.90;;;;;;5018275;28;20053;-85
2021/06/26 01:20:12;;;;;;;14.63;13.13;;;12.50;99.90;;;;;;5018169;28;20132;-85
2021/06/26 01:22:44;;;;;;;19.17;14.13;;;12.60;99.90;;;;;;5018098;28;20053;-85
2021/06/26 01:25:13;;;;;;;17.33;13.30;;;12.60;99.90;;;;;;5017841;28;20045;-86
2021/06/26 01:27:41;;;;;;;14.30;12.63;;;12.70;99.90;;;;;;5035346;28;20049;-84
2021/06/26 01:30:09;;;;;;;17.35;12.02;;;12.70;99.90;;;;;;5017848;28;20249;-84
2021/06/26 01:32:37;;;;;;;14.52;12.40;;;12.70;99.90;;;;;;5017870;28;20128;-84
2021/06/26 01:35:05;;;;;;;14.63;12.82;;;12.80;99.90;;;;;;5017644;28;20057;-85
2021/06/26 01:37:32;;;;;;;14.43;11.70;;;12.80;99.90;;;;;;5035175;28;20053;-85
2021/06/26 01:39:58;;;;;;;14.88;12.48;;;12.90;99.90;;;;;;5035017;28;20053;-85
2021/06/26 01:42:25;;;;;;;14.40;12.60;;;12.90;99.90;;;;;;5035118;28;20053;-84
2021/06/26 01:44:52;;;;;;;15.38;12.88;;;12.90;99.90;;;;;;5017060;28;20045;-85
2021/06/26 01:47:18;;;;;;;15.52;12.88;;;12.90;99.90;;;;;;5017307;28;20061;-85
2021/06/26 01:49:45;;;;;;;13.85;12.55;;;13.00;99.90;;;;;;5017533;28;20045;-85
2021/06/26 01:52:12;;;;;;;16.17;13.10;;;13.00;99.90;;;;;;5017437;28;20051;-85
2021/06/26 01:54:39;;;;;;;14.27;12.80;;;13.00;99.90;;;;;;5017400;28;20055;-85
2021/06/26 01:57:09;;;;;;;19.52;13.38;;;13.00;99.90;;;;;;5017474;28;20433;-85
2021/06/26 01:59:37;;;;;;;13.65;11.82;;;13.00;99.90;;;;;;5017444;28;20080;-85
2021/06/26 02:02:06;;;;;;;15.10;11.85;;;13.10;99.90;;;;;;5017204;28;20088;-85
2021/06/26 02:04:33;;;;;;;15.38;12.77;;;13.10;99.90;;;;;;5017410;28;20046;-85
2021/06/26 02:07:00;;;;;;;18.23;12.65;;;13.10;99.90;;;;;;5034636;28;20076;-85
2021/06/26 02:09:26;;;;;;;19.48;13.43;;;13.10;99.90;;;;;;5017045;28;20053;-85
2021/06/26 02:11:53;;;;;;;15.70;14.07;;;13.20;99.90;;;;;;5018985;28;20056;-85
2021/06/26 02:14:20;;;;;;;14.68;12.73;;;13.00;99.90;;;;;;5039714;28;20049;-85
2021/06/26 02:16:47;;;;;;;17.27;13.68;;;13.00;99.90;;;;;;5017042;28;20132;-85
2021/06/26 02:19:14;;;;;;;16.88;13.48;;;13.00;99.90;;;;;;5017021;28;20498;-85
2021/06/26 02:21:41;;;;;;;15.35;13.75;;;13.00;99.90;;;;;;5017128;28;20055;-85
2021/06/26 02:24:08;;;;;;;19.00;12.98;;;13.00;99.90;;;;;;5016992;28;20046;-85
2021/06/26 02:26:35;;;;;;;18.05;13.95;;;13.00;99.90;;;;;;5034032;28;20046;-85
2021/06/26 02:29:02;;;;;;;18.42;13.35;;;13.00;99.90;;;;;;5034096;28;20418;-85
2021/06/26 02:31:28;;;;;;;15.15;13.55;;;13.00;99.90;;;;;;5016543;28;20057;-85
2021/06/26 02:33:55;;;;;;;21.33;14.52;;;13.00;99.90;;;;;;5033856;28;20050;-84
2021/06/26 02:36:22;;;;;;;17.08;13.10;;;13.00;99.90;;;;;;5016535;28;20045;-84
2021/06/26 02:38:50;;;;;;;20.55;14.80;;;13.10;99.90;;;;;;5017239;28;20053;-85
2021/06/26 02:41:21;;;;;;;17.75;13.75;;;13.10;99.90;;;;;;5017741;28;20059;-84
2021/06/26 02:43:51;;;;;;;16.15;13.82;;;13.10;99.90;;;;;;5016669;28;20049;-84
2021/06/26 02:46:17;;;;;;;19.58;14.35;;;13.10;99.90;;;;;;5033637;28;20052;-84
2021/06/26 02:48:44;;;;;;;20.00;14.73;;;13.10;99.90;;;;;;5033806;28;20135;-85
2021/06/26 02:51:11;;;;;;;21.65;13.25;;;13.10;99.90;;;;;;5016406;28;20049;-85
2021/06/26 02:53:38;;;;;;;21.95;14.55;;;13.10;99.90;;;;;;5016375;28;20049;-84
2021/06/26 02:56:06;;;;;;;18.08;13.85;;;13.10;99.90;;;;;;5015365;28;20053;-84
2021/06/26 02:58:32;;;;;;;21.30;15.07;;;13.10;99.90;;;;;;5016182;28;20059;-85
2021/06/26 03:01:00;;;;;;;19.50;14.35;;;13.00;99.90;;;;;;5016319;28;20049;-88
2021/06/26 03:03:27;;;;;;;15.70;13.73;;;13.10;99.90;;;;;;5016255;28;20540;-84
2021/06/26 03:05:53;;;;;;;15.88;12.55;;;13.00;99.90;;;;;;5033223;28;20045;-85
2021/06/26 03:08:21;;;;;;;15.63;13.27;;;13.00;99.90;;;;;;5033327;28;20046;-85
2021/06/26 03:10:48;;;;;;;17.92;12.63;;;13.10;99.90;;;;;;5015919;28;20062;-84
2021/06/26 03:13:15;;;;;;;20.60;13.20;;;13.00;99.90;;;;;;5016064;28;20045;-85
2021/06/26 03:15:46;;;;;;;18.85;13.48;;;13.10;99.90;;;;;;5015963;28;20482;-85
2021/06/26 03:18:13;;;;;;;19.77;14.13;;;13.10;99.90;;;;;;5015963;28;20496;-85
2021/06/26 03:20:40;;;;;;;13.57;12.18;;;13.10;99.90;;;;;;5015948;28;20059;-84
2021/06/26 03:23:07;;;;;;;13.45;11.85;;;13.10;99.90;;;;;;5033157;28;20045;-85
2021/06/26 03:25:35;;;;;;;14.40;12.43;;;13.20;99.90;;;;;;5033273;28;20080;-85
2021/06/26 03:28:01;;;;;;;17.13;12.57;;;13.20;99.90;;;;;;5033350;28;20049;-85
2021/06/26 03:30:28;;;;;;;13.95;11.73;;;13.20;99.90;;;;;;5017273;28;20061;-85
2021/06/26 03:32:56;;;;;;;12.93;11.02;;;13.30;99.90;;;;;;5020055;28;20050;-85
2021/06/26 03:35:23;;;;;;;15.70;12.90;;;13.30;99.90;;;;;;5032967;28;20474;-85
2021/06/26 03:37:50;;;;;;;18.77;13.05;;;13.30;99.90;;;;;;5015842;28;20058;-84
2021/06/26 03:40:17;;;;;;;14.93;11.77;;;13.40;99.90;;;;;;5015709;28;20077;-84
2021/06/26 03:42:43;;;;;;;13.07;11.63;;;13.40;99.90;;;;;;5015972;28;20053;-83
2021/06/26 03:45:11;;;;;;;15.63;11.95;;;13.40;99.90;;;;;;5015575;28;20042;-84
2021/06/26 03:47:38;;;;;;;15.70;13.32;;;13.30;99.90;;;;;;5015829;28;20049;-85
2021/06/26 03:50:06;;;;;;;14.50;12.52;;;13.30;99.90;;;;;;5015698;28;20045;-84
2021/06/26 03:52:33;;;;;;;14.70;12.75;;;13.30;99.90;;;;;;5033071;28;20057;-83
2021/06/26 03:55:00;;;;;;;12.32;11.13;;;13.30;99.90;;;;;;5032842;28;20548;-84
2021/06/26 03:57:26;;;;;;;13.70;11.45;;;13.40;99.90;;;;;;5015484;28;20049;-85
2021/06/26 03:59:53;;;;;;;12.80;9.52;;;13.40;99.90;;;;;;5032824;28;20053;-83
2021/06/26 04:02:20;;;;;;;13.57;11.02;;;13.40;99.90;;;;;;5032914;28;20052;-84
2021/06/26 04:04:47;;;;;;;11.63;10.48;;;13.40;99.90;;;;;;5020452;28;20077;-84
2021/06/26 04:07:14;;;;;;;12.45;10.77;;;13.50;99.90;;;;;;5015225;28;20045;-85
2021/06/26 04:09:40;;;;;;;11.90;10.75;;;13.50;99.90;;;;;;5018974;28;20148;-84
2021/06/26 04:12:08;;;;;;;11.65;10.45;;;13.50;99.90;;;;;;5019258;28;20504;-85
2021/06/26 04:14:34;;;;;;;11.07;10.07;;;13.40;99.90;;;;;;5019393;28;20053;-86
2021/06/26 04:17:01;;;;;;;11.50;9.73;;;13.50;99.90;;;;;;5019354;28;20107;-86
2021/06/26 04:19:28;;;;;;;11.30;9.50;;;13.50;99.90;;;;;;5036336;28;20056;-85
2021/06/26 04:21:55;;;;;;;9.88;8.88;;;13.60;99.90;;;;;;5019182;28;20060;-86
2021/06/26 04:24:22;;;;;;;8.75;8.02;;;13.60;99.90;;;;;;5019256;28;20065;-85
2021/06/26 04:26:48;;;;;;;9.45;8.48;;;13.70;99.90;;;;;;5019126;28;20490;-85
2021/06/26 04:29:15;;;;;;;8.13;7.40;;;13.70;99.90;;;;;;5036352;28;20176;-85
2021/06/26 04:31:42;;;;;;;9.18;8.27;;;13.80;99.90;;;;;;5018963;28;20052;-85
2021/06/26 04:34:09;;;;;;;9.48;7.65;;;13.80;99.90;;;;;;5018709;28;20053;-85
2021/06/26 04:36:35;;;;;;;9.32;8.52;;;13.80;99.90;;;;;;5018855;28;20057;-85
2021/06/26 04:39:07;;;;;;;8.57;7.85;;;13.90;99.90;;;;;;5036072;28;20056;-85
2021/06/26 04:41:35;;;;;;;8.13;7.47;;;14.00;99.90;;;;;;5036295;28;20045;-85
2021/06/26 04:44:02;;;;;;;9.35;8.45;;;14.10;99.90;;;;;;5018987;28;20050;-86
2021/06/26 04:46:29;;;;;;;9.15;8.32;;;14.10;99.90;;;;;;5036299;28;20055;-85
2021/06/26 04:48:56;;;;;;;8.50;7.63;;;14.30;99.90;;;;;;5020335;28;20049;-84
2021/06/26 04:51:23;;;;;;;7.72;7.13;;;14.40;99.90;;;;;;5041386;28;20047;-85
2021/06/26 04:53:50;;;;;;;8.38;7.47;;;14.60;99.90;;;;;;5019472;28;20053;-85
2021/06/26 04:56:17;;;;;;;9.30;8.40;;;14.80;99.90;;;;;;5035756;28;20049;-85
2021/06/26 04:58:44;;;;;;;13.48;9.48;;;14.90;99.90;;;;;;5018790;28;20054;-85
2021/06/26 05:01:11;;;;;;;12.88;9.30;;;14.80;99.90;;;;;;5018334;28;20071;-85
2021/06/26 05:03:39;;;;;;;14.55;10.32;;;14.70;99.90;;;;;;5035848;28;20486;-86
2021/06/26 05:06:06;;;;;;;13.48;9.45;;;14.70;99.90;;;;;;5018114;28;20049;-85
2021/06/26 05:08:33;;;;;;;11.70;9.75;;;14.70;99.90;;;;;;5018310;28;20079;-86
2021/06/26 05:10:59;;;;;;;9.60;8.38;;;14.60;99.90;;;;;;5018396;28;20472;-85
2021/06/26 05:13:26;;;;;;;11.00;9.85;;;14.70;99.90;;;;;;5035665;28;20410;-86
2021/06/26 05:15:53;;;;;;;11.05;7.82;;;14.90;99.90;;;;;;5035586;28;20053;-86
2021/06/26 05:18:20;;;;;;;13.80;8.13;;;15.10;99.90;;;;;;5035499;28;20049;-85
2021/06/26 05:20:46;;;;;;;14.07;9.05;;;15.30;99.90;;;;;;5017096;28;20220;-85
2021/06/26 05:23:15;;;;;;;17.50;8.70;;;15.40;99.90;;;;;;5017871;28;20409;-85
2021/06/26 05:25:43;;;;;;;13.23;8.60;;;15.70;99.90;;;;;;5039497;28;20053;-85
2021/06/26 05:28:10;;;;;;;15.10;8.70;;;16.10;99.90;;;;;;5018025;28;20042;-85
2021/06/26 05:30:37;;;;;;;7.65;6.85;;;16.40;99.90;;;;;;5035439;28;20453;-85
2021/06/26 05:33:04;;;;;;;7.43;6.13;;;16.60;99.90;;;;;;5017633;28;20045;-85
2021/06/26 05:35:31;;;;;;;7.18;6.57;;;16.80;99.90;;;;;;5017655;28;20481;-85
2021/06/26 05:37:58;;;;;;;7.07;6.38;;;17.10;99.90;;;;;;5017048;28;20049;-85
2021/06/26 05:40:25;;;;;;;6.22;5.63;;;17.00;99.90;;;;;;5017220;28;20059;-84
2021/06/26 05:42:52;;;;;;;5.40;5.00;;;17.00;99.90;;;;;;5034896;28;20444;-84
2021/06/26 05:45:19;;;;;;;6.07;5.57;;;17.50;99.90;;;;;;5016963;28;20057;-84
2021/06/26 05:47:46;;;;;;;4.72;4.32;;;17.70;99.90;;;;;;5017399;28;20128;-85
2021/06/26 05:50:12;;;;;;;5.20;4.60;;;18.90;99.90;;;;;;5034654;28;20064;-84
2021/06/26 05:52:54;;;;;;;5.88;3.95;;;20.40;99.90;;;;;;5017247;28;20057;-85
2021/06/26 05:55:22;;;;;;;4.50;4.18;;;21.60;99.90;;;;;;5034231;28;20531;-84
2021/06/26 05:57:49;;;;;;;4.05;3.75;;;21.90;99.90;;;;;;5034573;28;20057;-86
2021/06/26 06:00:18;;;;;;;4.00;3.70;;;21.70;99.90;;;;;;5034532;28;20417;-84
2021/06/26 06:02:46;;;;;;;3.65;3.15;;;22.70;99.90;;;;;;5017095;28;20056;-85
2021/06/26 06:05:13;;;;;;;4.90;3.25;;;24.50;99.90;;;;;;5016721;28;20049;-84
2021/06/26 06:07:41;;;;;;;3.00;2.90;;;24.80;99.90;;;;;;5017493;28;20136;-84
2021/06/26 06:10:10;;;;;;;3.67;3.38;;;25.10;99.90;;;;;;5036698;28;20500;-85
2021/06/26 06:12:38;;;;;;;3.45;2.80;;;24.80;99.90;;;;;;5018930;28;20163;-83
2021/06/26 06:15:08;;;;;;;3.17;2.97;;;24.30;99.90;;;;;;5032851;28;20068;-85
2021/06/26 06:17:35;;;;;;;2.80;2.70;;;24.00;99.90;;;;;;5016694;28;20049;-86
2021/06/26 06:20:04;;;;;;;3.28;3.08;;;24.20;99.90;;;;;;5016903;28;20136;-84
2021/06/26 06:22:32;;;;;;;3.00;2.80;;;25.20;99.90;;;;;;5034075;28;20132;-85
2021/06/26 06:24:59;;;;;;;5.07;2.85;;;24.80;99.90;;;;;;5016486;28;20057;-84
2021/06/26 06:27:26;;;;;;;3.47;3.20;;;25.70;99.90;;;;;;5032872;28;20103;-85
2021/06/26 06:29:53;;;;;;;6.40;3.08;;;26.50;99.90;;;;;;5033851;28;20049;-85
2021/06/26 06:32:20;;;;;;;3.97;3.17;;;27.70;99.90;;;;;;5015734;28;20067;-84
2021/06/26 06:34:47;;;;;;;6.85;3.22;;;28.70;98.20;;;;;;5033758;28;20061;-84
2021/06/26 06:37:14;;;;;;;9.57;3.50;;;29.60;94.40;;;;;;5015797;28;20896;-84
2021/06/26 06:39:40;;;;;;;7.15;3.28;;;30.40;91.50;;;;;;5033371;28;20052;-84
2021/06/26 06:42:07;;;;;;;5.68;3.33;;;30.60;90.00;;;;;;5015619;28;20565;-84
2021/06/26 06:44:34;;;;;;;4.28;3.22;;;30.00;88.00;;;;;;5015987;28;20053;-84
2021/06/26 06:47:01;;;;;;;4.82;3.38;;;30.40;88.70;;;;;;5033210;28;20453;-84
2021/06/26 06:49:28;;;;;;;4.80;3.75;;;30.90;86.10;;;;;;5015915;28;20060;-83
2021/06/26 06:51:55;;;;;;;7.72;4.10;;;31.80;82.50;;;;;;5015901;28;20409;-84
2021/06/26 06:54:21;;;;;;;6.10;4.18;;;30.80;83.40;;;;;;5015882;28;20089;-84
2021/06/26 06:56:48;;;;;;;12.15;5.00;;;31.20;82.40;;;;;;5015517;28;20406;-84
2021/06/26 06:59:15;;;;;;;9.95;4.32;;;30.50;81.40;;;;;;5015421;28;20419;-83
2021/06/26 07:01:42;;;;;;;15.02;4.97;;;30.70;80.20;;;;;;5015673;28;20057;-83
2021/06/26 07:04:08;;;;;;;14.40;4.55;;;31.40;79.30;;;;;;5015656;28;20053;-84
2021/06/26 07:06:35;;;;;;;7.88;4.38;;;31.80;76.50;;;;;;5015782;28;20495;-85
2021/06/26 07:09:02;;;;;;;6.90;4.35;;;32.10;73.30;;;;;;5032778;28;20061;-84
2021/06/26 07:11:29;;;;;;;4.93;3.67;;;32.40;73.30;;;;;;5015268;28;20128;-83
2021/06/26 07:13:56;;;;;;;9.77;4.03;;;32.70;72.50;;;;;;5015236;28;20053;-84
2021/06/26 07:16:22;;;;;;;6.50;4.10;;;33.70;70.50;;;;;;5023746;28;20049;-85
2021/06/26 07:18:49;;;;;;;4.30;3.85;;;33.90;67.40;;;;;;5025966;28;20041;-84
2021/06/26 07:21:16;;;;;;;4.45;3.97;;;34.00;66.70;;;;;;5042861;28;20043;-83
2021/06/26 07:23:42;;;;;;;4.03;3.63;;;33.80;66.60;;;;;;5020670;28;20064;-83
2021/06/26 07:26:09;;;;;;;4.28;3.50;;;34.30;66.10;;;;;;5014952;28;20064;-83
2021/06/26 07:28:36;;;;;;;4.03;3.25;;;35.70;63.90;;;;;;5016677;28;20053;-84
2021/06/26 07:31:03;;;;;;;6.65;3.55;;;36.40;61.20;;;;;;5019600;28;20557;-83
2021/06/26 07:33:30;;;;;;;4.30;3.90;;;36.40;60.40;;;;;;5014965;28;20049;-84
2021/06/26 07:35:57;;;;;;;5.05;3.67;;;35.50;59.90;;;;;;5014968;28;20490;-85
2021/06/26 07:38:25;;;;;;;6.28;3.53;;;34.70;60.60;;;;;;5015100;28;20050;-83
2021/06/26 07:40:51;;;;;;;5.50;4.13;;;34.90;61.20;;;;;;5014981;28;20056;-84
2021/06/26 07:43:18;;;;;;;3.97;3.47;;;35.10;59.90;;;;;;5014134;28;20050;-84
2021/06/26 07:45:45;;;;;;;4.47;4.05;;;34.20;62.40;;;;;;5032329;28;20413;-84
2021/06/26 07:48:12;;;;;;;4.65;4.25;;;33.70;62.50;;;;;;5015011;28;20076;-83
2021/06/26 07:50:39;;;;;;;4.78;3.97;;;32.70;63.10;;;;;;5014686;28;20053;-83
2021/06/26 07:53:06;;;;;;;4.90;3.85;;;32.60;64.40;;;;;;5014443;28;20052;-83
2021/06/26 07:55:33;;;;;;;4.35;4.03;;;33.70;64.10;;;;;;5032058;28;20054;-84
2021/06/26 07:58:01;;;;;;;7.72;4.13;;;33.30;63.10;;;;;;5014084;28;20136;-83
2021/06/26 08:00:28;;;;;;;5.07;4.43;;;33.20;63.30;;;;;;5015020;28;20564;-85
2021/06/26 08:02:55;;;;;;;6.93;4.00;;;33.20;64.60;;;;;;5014628;28;20056;-83
2021/06/26 08:05:22;;;;;;;3.88;3.67;;;32.80;65.20;;;;;;5014416;28;20053;-84
2021/06/26 08:08:00;;;;;;;4.00;3.80;;;32.30;64.50;;;;;;5016244;28;20132;-83
2021/06/26 08:10:27;;;;;;;4.10;3.78;;;32.40;65.30;;;;;;5014431;28;20050;-84
2021/06/26 08:12:54;;;;;;;4.15;3.75;;;32.80;62.70;;;;;;5032262;28;20050;-84
2021/06/26 08:15:20;;;;;;;4.53;4.13;;;31.50;64.00;;;;;;5014036;28;20494;-83
2021/06/26 08:17:47;;;;;;;3.67;3.38;;;31.30;65.70;;;;;;5014292;28;20056;-82
2021/06/26 08:20:14;;;;;;;4.55;4.25;;;31.50;66.20;;;;;;5014062;28;20059;-82
2021/06/26 08:22:41;;;;;;;5.03;4.40;;;31.90;64.70;;;;;;5014383;28;20048;-83
2021/06/26 08:25:09;;;;;;;5.00;4.53;;;31.70;64.00;;;;;;5014033;28;20394;-83
2021/06/26 08:27:35;;;;;;;4.82;4.35;;;31.80;64.70;;;;;;5024069;28;20459;-83
2021/06/26 08:30:03;;;;;;;5.32;4.32;;;31.20;65.30;;;;;;5041589;28;20060;-83
2021/06/26 08:32:30;;;;;;;5.03;4.50;;;31.10;66.00;;;;;;5040140;28;20045;-83
2021/06/26 08:34:57;;;;;;;4.68;3.90;;;30.60;66.80;;;;;;5023829;28;20067;-83
2021/06/26 08:37:32;;;;;;;8.70;4.05;;;30.10;68.00;;;;;;5024152;28;20060;-83
2021/06/26 08:39:59;;;;;;;4.32;4.03;;;29.70;68.50;;;;;;5023877;28;20095;-83
2021/06/26 08:42:26;;;;;;;5.50;5.10;;;29.20;67.70;;;;;;5024944;28;20042;-83
2021/06/26 08:44:59;;;;;;;5.32;4.93;;;28.70;71.40;;;;;;5040473;28;20249;-83
2021/06/26 08:47:27;;;;;;;5.20;4.40;;;27.90;75.40;;;;;;5034921;28;20284;-83
2021/06/26 08:49:54;;;;;;;4.95;4.60;;;27.50;78.00;;;;;;5035865;28;20107;-83
2021/06/26 08:52:21;;;;;;;6.93;5.63;;;27.60;80.50;;;;;;5035023;28;20053;-83
2021/06/26 08:54:50;;;;;;;5.88;5.47;;;26.90;82.10;;;;;;5052437;28;20390;-83
2021/06/26 08:57:35;;;;;;;5.05;4.65;;;27.60;83.70;;;;;;5037221;28;20505;-83
2021/06/26 09:00:06;;;;;;;5.30;4.53;;;30.30;78.00;;;;;;5037313;28;20513;-85
2021/06/26 09:02:33;;;;;;;5.85;4.57;;;30.50;74.30;;;;;;5037742;28;20102;-84
2021/06/26 09:05:02;;;;;;;4.93;4.32;;;30.10;74.40;;;;;;5037490;28;20429;-83
2021/06/26 09:07:48;;;;;;;7.75;4.82;;;29.60;74.60;;;;;;5037084;28;20133;-84
2021/06/26 09:10:17;;;;;;;5.57;4.95;;;29.60;74.40;;;;;;5038632;28;20064;-83
2021/06/26 09:12:45;;;;;;;4.85;4.50;;;29.20;74.90;;;;;;5055098;28;20139;-84
2021/06/26 09:15:24;;;;;;;5.63;4.50;;;28.60;75.40;;;;;;5036947;28;20056;-82
2021/06/26 09:17:53;;;;;;;7.65;4.65;;;28.50;76.00;;;;;;5037158;28;20053;-82
2021/06/26 09:20:22;;;;;;;4.60;4.30;;;28.60;76.50;;;;;;5037351;28;20114;-83
2021/06/26 09:22:52;;;;;;;5.50;4.63;;;28.70;73.60;;;;;;5054226;28;20068;-84
2021/06/26 09:25:34;;;;;;;4.53;4.22;;;29.10;74.70;;;;;;5037322;28;20052;-83
2021/06/26 09:28:06;;;;;;;4.70;4.30;;;30.30;71.90;;;;;;5054535;28;20057;-83
2021/06/26 09:30:40;;;;;;;4.95;4.40;;;32.30;68.10;;;;;;5054994;28;20515;-82
2021/06/26 09:33:12;;;;;;;4.32;3.92;;;31.60;67.50;;;;;;5036897;28;20045;-82
2021/06/26 09:35:40;;;;;;;3.97;3.67;;;31.30;66.80;;;;;;5054543;28;20094;-83
2021/06/26 09:38:07;;;;;;;4.20;3.90;;;31.30;66.70;;;;;;5037038;28;20120;-83
2021/06/26 09:40:41;;;;;;;3.80;3.60;;;31.60;66.70;;;;;;5036592;28;20049;-83
2021/06/26 09:43:08;;;;;;;;;;;32.30;65.20;;;;;;5037052;28;20088;-84
2021/06/26 09:45:35;;;;;;;3.97;3.67;;;32.30;64.70;;;;;;5053945;28;19978;-83
2021/06/26 09:48:06;;;;;;;4.40;3.60;;;32.00;64.50;;;;;;5036283;28;20171;-83
2021/06/26 09:50:35;;;;;;;3.95;3.75;;;31.70;64.90;;;;;;5036802;28;20057;-83
2021/06/26 09:53:05;;;;;;;4.00;3.70;;;31.50;64.40;;;;;;5036799;28;20045;-83
2021/06/26 09:55:40;;;;;;;3.50;3.28;;;31.00;64.10;;;;;;5053860;28;20497;-83
2021/06/26 09:58:12;;;;;;;4.13;3.70;;;30.20;64.60;;;;;;5032038;28;20049;-83
2021/06/26 10:00:41;;;;;;;4.97;4.45;;;29.50;65.70;;;;;;5036452;28;20106;-83
2021/06/26 10:03:09;;;;;;;5.07;3.75;;;29.10;68.30;;;;;;5036333;28;20053;-83
2021/06/26 10:05:37;;;;;;;4.22;3.92;;;28.90;70.10;;;;;;5053815;28;20127;-83
2021/06/26 10:08:05;;;;;;;4.95;4.10;;;28.70;69.10;;;;;;5054494;28;20080;-82
2021/06/26 10:10:33;;;;;;;4.03;3.78;;;28.50;70.20;;;;;;5025968;28;20057;-82
2021/06/26 10:13:00;;;;;;;4.53;4.20;;;29.80;71.70;;;;;;5033989;28;20494;-83
2021/06/26 10:15:31;;;;;;;3.63;3.30;;;32.40;66.10;;;;;;5033398;28;20049;-82
2021/06/26 10:17:59;;;;;;;4.18;3.38;;;35.40;59.00;;;;;;5016109;28;20053;-82
2021/06/26 10:20:27;;;;;;;3.90;3.60;;;35.10;57.80;;;;;;5015976;28;20052;-83
2021/06/26 10:23:00;;;;;;;3.72;3.40;;;34.00;56.70;;;;;;5033473;28;20042;-82
2021/06/26 10:25:31;;;;;;;3.45;3.20;;;33.10;58.40;;;;;;5033208;28;20075;-83
2021/06/26 10:28:02;;;;;;;3.80;3.50;;;32.30;59.40;;;;;;5015809;28;20053;-82
2021/06/26 10:30:29;;;;;;;3.78;3.47;;;31.50;60.40;;;;;;5016047;28;20045;-82
2021/06/26 10:33:00;;;;;;;4.53;3.53;;;31.10;59.60;;;;;;5015838;28;20478;-81
2021/06/26 10:35:30;;;;;;;3.83;3.58;;;30.30;63.10;;;;;;5015544;28;20045;-82
2021/06/26 10:38:13;;;;;;;5.35;3.40;;;30.00;63.90;;;;;;5033126;28;20052;-82
2021/06/26 10:40:51;;;;;;;8.82;4.20;;;29.90;64.80;;;;;;5011427;28;20454;-82
2021/06/26 10:43:20;;;;;;;3.70;3.40;;;29.60;64.90;;;;;;5032912;28;20050;-82
2021/06/26 10:46:06;;;;;;;4.70;3.38;;;29.30;65.80;;;;;;5032971;28;20482;-82
2021/06/26 10:48:35;;;;;;;3.90;3.50;;;29.10;65.60;;;;;;5033121;28;20520;-83
2021/06/26 10:51:07;;;;;;;3.45;3.28;;;29.10;66.20;;;;;;5016097;28;20053;-82
2021/06/26 10:53:39;;;;;;;3.72;3.53;;;28.90;67.70;;;;;;5015663;28;20500;-82
2021/06/26 10:56:11;;;;;;;3.72;3.42;;;28.70;66.50;;;;;;5015011;28;20049;-82
2021/06/26 10:58:43;;;;;;;4.00;3.40;;;28.60;66.60;;;;;;5015203;28;20106;-82
2021/06/26 11:01:20;;;;;;;3.88;3.63;;;28.80;67.30;;;;;;5017522;28;20075;-82
2021/06/26 11:03:51;;;;;;;3.88;3.58;;;28.80;68.00;;;;;;5014613;28;20055;-82
2021/06/26 11:06:17;;;;;;;4.18;3.78;;;29.10;68.20;;;;;;5015006;28;20045;-82
2021/06/26 11:09:07;;;;;;;3.58;3.38;;;29.50;68.10;;;;;;5032899;28;20050;-82
2021/06/26 11:11:42;;;;;;;3.85;3.65;;;29.70;67.70;;;;;;5015236;28;20440;-81
2021/06/26 11:14:20;;;;;;;4.03;3.65;;;29.70;66.60;;;;;;5015363;28;20045;-82
2021/06/26 11:16:52;;;;;;;3.47;3.28;;;30.00;66.70;;;;;;5014655;28;20049;-82
2021/06/26 11:19:21;;;;;;;4.07;3.55;;;30.20;65.00;;;;;;5014994;28;20049;-82
2021/06/26 11:21:53;;;;;;;3.78;3.45;;;30.00;65.80;;;;;;5015105;28;20054;-82
2021/06/26 11:24:40;;;;;;;4.13;3.13;;;30.00;66.20;;;;;;5015045;28;20073;-82
2021/06/26 11:27:11;;;;;;;3.45;3.25;;;29.90;66.20;;;;;;5032517;28;20508;-82
2021/06/26 11:29:43;;;;;;;3.35;3.15;;;29.80;65.30;;;;;;5015144;28;20052;-82
2021/06/26 11:32:20;;;;;;;3.15;2.70;;;29.70;64.80;;;;;;5014601;28;20056;-82
2021/06/26 11:35:13;;;;;;;3.53;2.85;;;30.20;63.80;;;;;;5031522;28;20136;-82
2021/06/26 11:37:45;;;;;;;3.13;3.03;;;30.40;62.70;;;;;;5014924;28;20144;-82
2021/06/26 11:40:15;;;;;;;4.28;3.28;;;30.40;61.20;;;;;;5014697;28;20050;-82
2021/06/26 11:42:44;;;;;;;3.58;3.28;;;31.00;59.00;;;;;;5014485;28;20055;-81
2021/06/26 11:45:13;;;;;;;10.55;2.90;;;31.50;58.90;;;;;;5014983;28;20057;-82
2021/06/26 11:47:39;;;;;;;3.17;2.97;;;31.80;57.80;;;;;;5014718;28;20056;-83
2021/06/26 11:50:17;;;;;;;2.83;2.65;;;31.00;56.90;;;;;;5015025;28;20046;-82
2021/06/26 11:52:45;;;;;;;2.35;2.15;;;30.50;58.00;;;;;;5015062;28;20045;-83
2021/06/26 11:55:13;;;;;;;2.33;2.22;;;30.00;57.40;;;;;;5014908;28;20050;-82
2021/06/26 11:57:39;;;;;;;4.47;2.75;;;29.90;58.70;;;;;;5014877;28;20050;-82
2021/06/26 12:00:07;;;;;;;8.10;4.22;;;30.20;59.00;;;;;;5032875;28;20053;-81
2021/06/26 12:02:38;;;;;;;9.88;4.03;;;30.50;58.80;;;;;;5014230;28;20049;-82
2021/06/26 12:05:06;;;;;;;2.47;2.28;;;30.20;59.30;;;;;;5014205;28;20508;-83
2021/06/26 12:07:37;;;;;;;3.35;2.25;;;30.40;58.40;;;;;;5014674;28;20449;-82
2021/06/26 12:10:06;;;;;;;2.53;2.35;;;30.50;58.10;;;;;;5014833;28;20063;-83
2021/06/26 12:12:37;;;;;;;2.55;2.42;;;30.20;59.60;;;;;;5014640;28;20049;-83
2021/06/26 12:15:06;;;;;;;2.45;2.35;;;29.80;60.20;;;;;;5014047;28;20045;-84
2021/06/26 12:17:33;;;;;;;2.72;2.63;;;29.80;60.70;;;;;;5014779;28;20053;-82
2021/06/26 12:20:06;;;;;;;3.25;3.05;;;29.60;61.80;;;;;;5031516;28;20095;-81
2021/06/26 12:22:33;;;;;;;4.25;3.00;;;29.30;65.50;;;;;;5014398;28;20286;-83
2021/06/26 12:25:13;;;;;;;3.40;3.20;;;28.90;65.80;;;;;;5014177;28;20497;-82
2021/06/26 12:27:40;;;;;;;3.45;3.15;;;28.90;66.60;;;;;;5014401;28;20103;-82
2021/06/26 12:30:09;;;;;;;3.70;3.40;;;28.60;67.20;;;;;;5035367;28;20076;-82
2021/06/26 12:32:39;;;;;;;3.33;3.20;;;28.20;67.40;;;;;;5018502;28;20115;-81
2021/06/26 12:35:08;;;;;;;3.53;3.33;;;27.80;68.80;;;;;;5035838;28;20068;-81
2021/06/26 12:37:38;;;;;;;3.47;3.20;;;27.40;70.00;;;;;;5018444;28;20056;-82
2021/06/26 12:40:33;;;;;;;3.80;3.47;;;27.30;71.40;;;;;;5018262;28;20084;-82
2021/06/26 12:43:13;;;;;;;3.70;3.38;;;27.00;71.60;;;;;;5017184;28;20046;-81
2021/06/26 12:45:42;;;;;;;3.60;3.40;;;26.70;73.20;;;;;;5036020;28;20049;-82
2021/06/26 12:48:37;;;;;;;3.63;3.42;;;26.60;74.30;;;;;;5021355;28;20084;-81